sensor_id;sensor_type;location;lat;lon;timestamp;pressure;altitude;pressure_sealevel;temperature;humidity
18201;BME280;9226;47.858;9.594;2023-01-28T00:02:07;95532.91;;;-0.09;80.94
18201;BME280;9226;47.858;9.594;2023-01-28T00:04:33;95528.91;;;-0.20;81.55
18201;BME280;9226;47.858;9.594;2023-01-28T00:06:58;95528.75;;;-0.15;81.10
18201;BME280;9226;47.858;9.594;2023-01-28T00:09:23;95513.72;;;-0.08;81.27
18201;BME280;9226;47.858;9.594;2023-01-28T00:11:49;95518.94;;;-0.08;81.34
18201;BME280;9226;47.858;9.594;2023-01-28T00:14:16;95523.34;;;-0.10;81.47
18201;BME280;9226;47.858;9.594;2023-01-28T00:16:41;95526.38;;;-0.21;81.57
18201;BME280;9226;47.858;9.594;2023-01-28T00:19:07;95526.75;;;-0.08;81.41
18201;BME280;9226;47.858;9.594;2023-01-28T00:21:32;95518.81;;;-0.05;81.45
18201;BME280;9226;47.858;9.594;2023-01-28T00:23:58;95517.75;;;0.01;81.30
18201;BME280;9226;47.858;9.594;2023-01-28T00:26:24;95520.97;;;-0.16;81.69
18201;BME280;9226;47.858;9.594;2023-01-28T00:28:50;95522.47;;;-0.33;82.97
18201;BME280;9226;47.858;9.594;2023-01-28T00:31:18;95516.78;;;-0.21;82.25
18201;BME280;9226;47.858;9.594;2023-01-28T00:33:45;95517.38;;;-0.12;82.26
18201;BME280;9226;47.858;9.594;2023-01-28T00:36:11;95520.19;;;-0.19;82.74
18201;BME280;9226;47.858;9.594;2023-01-28T00:38:37;95517.59;;;-0.19;82.44
18201;BME280;9226;47.858;9.594;2023-01-28T00:41:08;95519.16;;;-0.38;83.41
18201;BME280;9226;47.858;9.594;2023-01-28T00:43:35;95518.59;;;-0.23;83.05
18201;BME280;9226;47.858;9.594;2023-01-28T00:46:00;95525.75;;;-0.28;83.13
18201;BME280;9226;47.858;9.594;2023-01-28T00:48:26;95521.88;;;-0.17;82.73
18201;BME280;9226;47.858;9.594;2023-01-28T00:50:51;95518.88;;;-0.07;82.30
18201;BME280;9226;47.858;9.594;2023-01-28T00:53:17;95507.59;;;-0.07;82.32
18201;BME280;9226;47.858;9.594;2023-01-28T00:55:42;95499.00;;;-0.09;82.55
18201;BME280;9226;47.858;9.594;2023-01-28T00:58:07;95511.81;;;-0.27;82.75
18201;BME280;9226;47.858;9.594;2023-01-28T01:00:33;95516.16;;;-0.27;82.94
18201;BME280;9226;47.858;9.594;2023-01-28T01:02:58;95515.44;;;-0.31;83.29
18201;BME280;9226;47.858;9.594;2023-01-28T01:05:24;95514.66;;;-0.33;83.17
18201;BME280;9226;47.858;9.594;2023-01-28T01:07:49;95520.66;;;-0.31;83.06
18201;BME280;9226;47.858;9.594;2023-01-28T01:10:17;95514.53;;;-0.06;82.14
18201;BME280;9226;47.858;9.594;2023-01-28T01:12:45;95527.69;;;-0.33;82.87
18201;BME280;9226;47.858;9.594;2023-01-28T01:15:10;95527.22;;;-0.21;82.70
18201;BME280;9226;47.858;9.594;2023-01-28T01:17:40;95520.13;;;-0.17;82.75
18201;BME280;9226;47.858;9.594;2023-01-28T01:20:11;95524.03;;;-0.29;82.91
18201;BME280;9226;47.858;9.594;2023-01-28T01:22:37;95522.63;;;-0.14;82.68
18201;BME280;9226;47.858;9.594;2023-01-28T01:25:04;95527.91;;;-0.15;82.14
18201;BME280;9226;47.858;9.594;2023-01-28T01:27:30;95530.63;;;-0.19;82.39
18201;BME280;9226;47.858;9.594;2023-01-28T01:29:56;95529.81;;;-0.21;82.77
18201;BME280;9226;47.858;9.594;2023-01-28T01:32:23;95526.31;;;-0.20;82.37
18201;BME280;9226;47.858;9.594;2023-01-28T01:34:49;95533.25;;;-0.42;83.48
18201;BME280;9226;47.858;9.594;2023-01-28T01:37:14;95535.06;;;-0.44;83.45
18201;BME280;9226;47.858;9.594;2023-01-28T01:39:40;95537.47;;;-0.40;83.49
18201;BME280;9226;47.858;9.594;2023-01-28T01:42:09;95533.47;;;-0.25;83.00
18201;BME280;9226;47.858;9.594;2023-01-28T01:44:58;95531.41;;;-0.40;83.14
18201;BME280;9226;47.858;9.594;2023-01-28T01:47:32;95535.50;;;-0.57;83.54
18201;BME280;9226;47.858;9.594;2023-01-28T01:50:03;95535.28;;;-0.50;83.76
18201;BME280;9226;47.858;9.594;2023-01-28T01:52:34;95537.19;;;-0.56;83.90
18201;BME280;9226;47.858;9.594;2023-01-28T01:55:03;95545.13;;;-0.35;83.13
18201;BME280;9226;47.858;9.594;2023-01-28T01:57:32;95549.81;;;-0.45;83.31
18201;BME280;9226;47.858;9.594;2023-01-28T02:00:01;95540.81;;;-0.60;84.02
18201;BME280;9226;47.858;9.594;2023-01-28T02:02:42;95542.81;;;-0.66;84.73
18201;BME280;9226;47.858;9.594;2023-01-28T02:05:11;95544.25;;;-0.59;84.54
18201;BME280;9226;47.858;9.594;2023-01-28T02:07:37;95538.38;;;-0.64;85.02
18201;BME280;9226;47.858;9.594;2023-01-28T02:10:04;95540.19;;;-0.66;85.20
18201;BME280;9226;47.858;9.594;2023-01-28T02:12:36;95543.06;;;-0.74;85.32
18201;BME280;9226;47.858;9.594;2023-01-28T02:15:15;95546.88;;;-0.84;86.08
18201;BME280;9226;47.858;9.594;2023-01-28T02:17:41;95552.13;;;-0.61;85.09
18201;BME280;9226;47.858;9.594;2023-01-28T02:20:12;95545.88;;;-0.55;84.85
18201;BME280;9226;47.858;9.594;2023-01-28T02:32:00;95553.97;;;-0.63;85.09
18201;BME280;9226;47.858;9.594;2023-01-28T02:36:59;95559.94;;;-0.61;84.74
18201;BME280;9226;47.858;9.594;2023-01-28T02:39:30;95561.19;;;-0.71;85.08
18201;BME280;9226;47.858;9.594;2023-01-28T02:42:03;95558.59;;;-0.71;84.89
18201;BME280;9226;47.858;9.594;2023-01-28T02:44:29;95554.75;;;-0.61;84.54
18201;BME280;9226;47.858;9.594;2023-01-28T02:46:54;95564.91;;;-0.78;85.04
18201;BME280;9226;47.858;9.594;2023-01-28T02:49:58;95551.94;;;-0.80;84.97
18201;BME280;9226;47.858;9.594;2023-01-28T03:01:21;95550.28;;;-0.82;85.40
18201;BME280;9226;47.858;9.594;2023-01-28T03:04:11;95562.41;;;-0.81;85.32
18201;BME280;9226;47.858;9.594;2023-01-28T03:06:48;95564.44;;;-0.89;85.82
18201;BME280;9226;47.858;9.594;2023-01-28T03:09:16;95558.69;;;-0.74;85.65
18201;BME280;9226;47.858;9.594;2023-01-28T03:12:05;95562.31;;;-0.78;85.28
18201;BME280;9226;47.858;9.594;2023-01-28T03:14:55;95558.69;;;-0.74;85.15
18201;BME280;9226;47.858;9.594;2023-01-28T03:17:51;95559.66;;;-0.77;85.14
18201;BME280;9226;47.858;9.594;2023-01-28T03:20:42;95556.63;;;-0.89;85.69
18201;BME280;9226;47.858;9.594;2023-01-28T03:23:36;95561.47;;;-0.79;85.54
18201;BME280;9226;47.858;9.594;2023-01-28T03:26:24;95552.72;;;-0.78;85.97
18201;BME280;9226;47.858;9.594;2023-01-28T03:29:13;95564.22;;;-0.83;85.58
18201;BME280;9226;47.858;9.594;2023-01-28T03:31:59;95553.22;;;-0.66;85.49
18201;BME280;9226;47.858;9.594;2023-01-28T03:34:45;95550.06;;;-0.76;85.59
18201;BME280;9226;47.858;9.594;2023-01-28T03:37:31;95549.13;;;-0.74;85.45
18201;BME280;9226;47.858;9.594;2023-01-28T03:40:03;95554.06;;;-0.66;84.55
18201;BME280;9226;47.858;9.594;2023-01-28T03:42:30;95550.72;;;-0.69;84.95
18201;BME280;9226;47.858;9.594;2023-01-28T03:44:57;95555.28;;;-0.76;85.06
18201;BME280;9226;47.858;9.594;2023-01-28T03:47:28;95558.25;;;-0.62;85.16
18201;BME280;9226;47.858;9.594;2023-01-28T03:49:55;95551.63;;;-0.70;84.94
18201;BME280;9226;47.858;9.594;2023-01-28T03:52:26;95562.03;;;-0.45;84.39
18201;BME280;9226;47.858;9.594;2023-01-28T03:54:51;95559.94;;;-0.61;84.83
18201;BME280;9226;47.858;9.594;2023-01-28T03:57:19;95564.31;;;-0.61;84.55
18201;BME280;9226;47.858;9.594;2023-01-28T03:59:45;95573.88;;;-0.62;84.65
18201;BME280;9226;47.858;9.594;2023-01-28T04:02:14;95569.59;;;-0.63;84.80
18201;BME280;9226;47.858;9.594;2023-01-28T04:04:40;95575.91;;;-0.70;84.92
18201;BME280;9226;47.858;9.594;2023-01-28T04:07:08;95567.94;;;-0.65;84.86
18201;BME280;9226;47.858;9.594;2023-01-28T04:09:35;95574.00;;;-0.65;84.61
18201;BME280;9226;47.858;9.594;2023-01-28T04:12:01;95574.84;;;-0.64;84.67
18201;BME280;9226;47.858;9.594;2023-01-28T04:14:26;95578.31;;;-0.64;84.40
18201;BME280;9226;47.858;9.594;2023-01-28T04:16:52;95582.19;;;-0.76;84.48
18201;BME280;9226;47.858;9.594;2023-01-28T04:19:19;95576.28;;;-0.81;84.97
18201;BME280;9226;47.858;9.594;2023-01-28T04:21:45;95582.63;;;-0.88;85.47
18201;BME280;9226;47.858;9.594;2023-01-28T04:24:12;95588.03;;;-0.69;85.17
18201;BME280;9226;47.858;9.594;2023-01-28T04:26:38;95587.94;;;-0.66;85.20
18201;BME280;9226;47.858;9.594;2023-01-28T04:29:03;95583.28;;;-0.58;84.67
18201;BME280;9226;47.858;9.594;2023-01-28T04:31:29;95595.84;;;-0.69;85.02
18201;BME280;9226;47.858;9.594;2023-01-28T04:33:55;95587.56;;;-0.80;84.98
18201;BME280;9226;47.858;9.594;2023-01-28T04:36:20;95590.28;;;-0.83;85.45
18201;BME280;9226;47.858;9.594;2023-01-28T04:38:45;95594.44;;;-0.79;85.37
18201;BME280;9226;47.858;9.594;2023-01-28T04:41:11;95589.53;;;-0.87;85.37
18201;BME280;9226;47.858;9.594;2023-01-28T04:43:36;95592.19;;;-0.88;85.69
18201;BME280;9226;47.858;9.594;2023-01-28T04:46:02;95589.28;;;-0.81;85.72
18201;BME280;9226;47.858;9.594;2023-01-28T04:48:27;95597.22;;;-0.84;85.82
18201;BME280;9226;47.858;9.594;2023-01-28T04:50:55;95591.25;;;-0.87;86.28
18201;BME280;9226;47.858;9.594;2023-01-28T04:53:20;95588.72;;;-0.89;85.99
18201;BME280;9226;47.858;9.594;2023-01-28T04:55:46;95587.88;;;-0.89;86.44
18201;BME280;9226;47.858;9.594;2023-01-28T04:58:11;95588.72;;;-0.89;86.50
18201;BME280;9226;47.858;9.594;2023-01-28T05:00:36;95592.53;;;-0.99;86.90
18201;BME280;9226;47.858;9.594;2023-01-28T05:03:02;95597.50;;;-0.92;86.75
18201;BME280;9226;47.858;9.594;2023-01-28T05:05:27;95596.28;;;-1.08;87.39
18201;BME280;9226;47.858;9.594;2023-01-28T05:07:54;95603.00;;;-1.01;87.23
18201;BME280;9226;47.858;9.594;2023-01-28T05:10:21;95594.19;;;-0.97;86.85
18201;BME280;9226;47.858;9.594;2023-01-28T05:12:47;95601.16;;;-0.97;86.60
18201;BME280;9226;47.858;9.594;2023-01-28T05:15:17;95609.41;;;-1.11;86.66
18201;BME280;9226;47.858;9.594;2023-01-28T05:17:43;95615.63;;;-1.15;86.95
18201;BME280;9226;47.858;9.594;2023-01-28T05:20:11;95625.81;;;-1.07;86.77
18201;BME280;9226;47.858;9.594;2023-01-28T05:22:38;95620.31;;;-1.00;86.78
18201;BME280;9226;47.858;9.594;2023-01-28T05:25:04;95626.56;;;-1.04;86.91
18201;BME280;9226;47.858;9.594;2023-01-28T05:27:30;95627.00;;;-1.18;86.69
18201;BME280;9226;47.858;9.594;2023-01-28T05:29:57;95623.06;;;-1.04;86.93
18201;BME280;9226;47.858;9.594;2023-01-28T05:32:22;95625.75;;;-1.06;87.08
18201;BME280;9226;47.858;9.594;2023-01-28T05:34:48;95626.50;;;-1.02;86.83
18201;BME280;9226;47.858;9.594;2023-01-28T05:37:13;95626.34;;;-0.98;86.41
18201;BME280;9226;47.858;9.594;2023-01-28T05:39:39;95627.97;;;-0.95;86.19
18201;BME280;9226;47.858;9.594;2023-01-28T05:42:04;95632.88;;;-0.86;85.87
18201;BME280;9226;47.858;9.594;2023-01-28T05:44:29;95633.56;;;-1.06;86.40
18201;BME280;9226;47.858;9.594;2023-01-28T05:46:55;95632.44;;;-0.99;86.34
18201;BME280;9226;47.858;9.594;2023-01-28T05:49:20;95639.38;;;-0.98;86.26
18201;BME280;9226;47.858;9.594;2023-01-28T05:51:46;95625.28;;;-0.92;85.73
18201;BME280;9226;47.858;9.594;2023-01-28T05:54:12;95637.38;;;-0.89;85.77
18201;BME280;9226;47.858;9.594;2023-01-28T05:56:38;95637.50;;;-0.94;85.97
18201;BME280;9226;47.858;9.594;2023-01-28T05:59:04;95637.75;;;-1.02;85.96
18201;BME280;9226;47.858;9.594;2023-01-28T06:01:30;95643.06;;;-1.05;86.03
18201;BME280;9226;47.858;9.594;2023-01-28T06:03:55;95643.25;;;-1.11;85.87
18201;BME280;9226;47.858;9.594;2023-01-28T06:06:21;95646.38;;;-1.00;85.93
18201;BME280;9226;47.858;9.594;2023-01-28T06:08:46;95648.38;;;-1.08;85.81
18201;BME280;9226;47.858;9.594;2023-01-28T06:11:12;95644.00;;;-1.06;86.19
18201;BME280;9226;47.858;9.594;2023-01-28T06:13:37;95644.59;;;-0.98;85.76
18201;BME280;9226;47.858;9.594;2023-01-28T06:16:04;95644.38;;;-0.92;85.61
18201;BME280;9226;47.858;9.594;2023-01-28T06:18:30;95658.50;;;-0.99;85.69
18201;BME280;9226;47.858;9.594;2023-01-28T06:20:55;95658.69;;;-1.05;86.45
18201;BME280;9226;47.858;9.594;2023-01-28T06:23:20;95657.69;;;-1.01;86.08
18201;BME280;9226;47.858;9.594;2023-01-28T06:25:46;95659.19;;;-0.94;86.21
18201;BME280;9226;47.858;9.594;2023-01-28T06:28:11;95659.19;;;-0.94;86.62
18201;BME280;9226;47.858;9.594;2023-01-28T06:30:37;95660.91;;;-0.93;85.92
18201;BME280;9226;47.858;9.594;2023-01-28T06:33:02;95664.53;;;-0.98;86.38
18201;BME280;9226;47.858;9.594;2023-01-28T06:35:27;95664.34;;;-0.92;86.22
18201;BME280;9226;47.858;9.594;2023-01-28T06:37:53;95666.91;;;-0.91;86.25
18201;BME280;9226;47.858;9.594;2023-01-28T06:40:19;95662.81;;;-0.98;86.11
18201;BME280;9226;47.858;9.594;2023-01-28T06:42:47;95664.09;;;-0.84;85.69
18201;BME280;9226;47.858;9.594;2023-01-28T06:45:12;95677.31;;;-0.91;85.43
18201;BME280;9226;47.858;9.594;2023-01-28T06:47:38;95668.22;;;-0.77;85.59
18201;BME280;9226;47.858;9.594;2023-01-28T06:50:04;95677.56;;;-0.98;85.64
18201;BME280;9226;47.858;9.594;2023-01-28T06:52:30;95675.53;;;-0.88;85.56
18201;BME280;9226;47.858;9.594;2023-01-28T06:54:55;95671.22;;;-0.89;85.63
18201;BME280;9226;47.858;9.594;2023-01-28T06:57:20;95680.31;;;-0.76;85.41
18201;BME280;9226;47.858;9.594;2023-01-28T06:59:46;95667.78;;;-0.90;84.85
18201;BME280;9226;47.858;9.594;2023-01-28T07:02:11;95676.34;;;-0.86;85.01
18201;BME280;9226;47.858;9.594;2023-01-28T07:04:36;95681.75;;;-0.93;85.19
18201;BME280;9226;47.858;9.594;2023-01-28T07:07:02;95685.91;;;-0.87;84.76
18201;BME280;9226;47.858;9.594;2023-01-28T07:09:27;95687.75;;;-0.91;85.15
18201;BME280;9226;47.858;9.594;2023-01-28T07:11:53;95696.91;;;-1.05;85.07
18201;BME280;9226;47.858;9.594;2023-01-28T07:14:18;95694.53;;;-0.85;85.10
18201;BME280;9226;47.858;9.594;2023-01-28T07:16:44;95688.38;;;-0.84;85.37
18201;BME280;9226;47.858;9.594;2023-01-28T07:19:09;95692.56;;;-0.78;84.49
18201;BME280;9226;47.858;9.594;2023-01-28T07:21:35;95693.06;;;-0.67;84.32
18201;BME280;9226;47.858;9.594;2023-01-28T07:24:00;95694.81;;;-0.67;84.02
18201;BME280;9226;47.858;9.594;2023-01-28T07:26:25;95692.94;;;-0.64;84.13
18201;BME280;9226;47.858;9.594;2023-01-28T07:28:51;95701.84;;;-0.69;83.57
18201;BME280;9226;47.858;9.594;2023-01-28T07:31:16;95704.31;;;-0.65;83.39
18201;BME280;9226;47.858;9.594;2023-01-28T07:33:42;95704.41;;;-0.68;83.25
18201;BME280;9226;47.858;9.594;2023-01-28T07:36:07;95707.25;;;-0.76;83.50
18201;BME280;9226;47.858;9.594;2023-01-28T07:38:33;95708.63;;;-0.65;83.56
18201;BME280;9226;47.858;9.594;2023-01-28T07:40:58;95710.66;;;-0.74;82.71
18201;BME280;9226;47.858;9.594;2023-01-28T07:43:23;95715.03;;;-0.74;83.33
18201;BME280;9226;47.858;9.594;2023-01-28T07:45:49;95717.78;;;-0.79;82.64
18201;BME280;9226;47.858;9.594;2023-01-28T07:48:14;95722.09;;;-0.79;82.62
18201;BME280;9226;47.858;9.594;2023-01-28T07:50:40;95719.41;;;-0.76;82.68
18201;BME280;9226;47.858;9.594;2023-01-28T07:53:08;95724.38;;;-0.68;82.21
18201;BME280;9226;47.858;9.594;2023-01-28T07:55:35;95734.94;;;-0.73;81.37
18201;BME280;9226;47.858;9.594;2023-01-28T07:58:02;95733.41;;;-0.79;81.56
18201;BME280;9226;47.858;9.594;2023-01-28T08:00:30;95734.06;;;-0.72;80.93
18201;BME280;9226;47.858;9.594;2023-01-28T08:02:57;95742.09;;;-0.80;80.45
18201;BME280;9226;47.858;9.594;2023-01-28T08:05:24;95747.28;;;-0.78;80.06
18201;BME280;9226;47.858;9.594;2023-01-28T08:07:51;95748.06;;;-0.76;80.40
18201;BME280;9226;47.858;9.594;2023-01-28T08:10:18;95749.03;;;-0.79;80.06
18201;BME280;9226;47.858;9.594;2023-01-28T08:12:54;95755.94;;;-0.78;80.00
18201;BME280;9226;47.858;9.594;2023-01-28T08:15:21;95759.50;;;-0.80;80.02
18201;BME280;9226;47.858;9.594;2023-01-28T08:17:46;95761.91;;;-0.74;79.93
18201;BME280;9226;47.858;9.594;2023-01-28T08:20:12;95758.06;;;-0.62;79.79
18201;BME280;9226;47.858;9.594;2023-01-28T08:22:38;95760.41;;;-0.55;79.30
18201;BME280;9226;47.858;9.594;2023-01-28T08:25:03;95753.53;;;-0.57;79.00
18201;BME280;9226;47.858;9.594;2023-01-28T08:27:29;95768.22;;;-0.28;78.97
18201;BME280;9226;47.858;9.594;2023-01-28T08:29:54;95765.53;;;-0.25;78.18
18201;BME280;9226;47.858;9.594;2023-01-28T08:32:20;95772.28;;;-0.19;77.95
18201;BME280;9226;47.858;9.594;2023-01-28T08:34:45;95766.75;;;-0.10;77.89
18201;BME280;9226;47.858;9.594;2023-01-28T08:37:11;95765.28;;;0.08;77.70
18201;BME280;9226;47.858;9.594;2023-01-28T08:39:36;95766.22;;;0.06;76.77
18201;BME280;9226;47.858;9.594;2023-01-28T08:42:02;95765.59;;;-0.01;75.86
18201;BME280;9226;47.858;9.594;2023-01-28T08:44:27;95769.41;;;0.14;76.25
18201;BME280;9226;47.858;9.594;2023-01-28T08:46:52;95764.63;;;0.27;75.92
18201;BME280;9226;47.858;9.594;2023-01-28T08:49:18;95765.75;;;0.20;76.34
18201;BME280;9226;47.858;9.594;2023-01-28T08:51:43;95758.41;;;0.54;76.08
18201;BME280;9226;47.858;9.594;2023-01-28T08:54:09;95766.13;;;0.81;76.64
18201;BME280;9226;47.858;9.594;2023-01-28T08:56:34;95761.97;;;1.21;74.70
18201;BME280;9226;47.858;9.594;2023-01-28T08:59:00;95768.28;;;1.82;73.90
18201;BME280;9226;47.858;9.594;2023-01-28T09:01:25;95773.19;;;2.10;69.71
18201;BME280;9226;47.858;9.594;2023-01-28T09:03:53;95771.56;;;2.28;68.39
18201;BME280;9226;47.858;9.594;2023-01-28T09:06:18;95761.25;;;2.44;68.21
18201;BME280;9226;47.858;9.594;2023-01-28T09:08:44;95762.78;;;2.09;67.92
18201;BME280;9226;47.858;9.594;2023-01-28T09:11:09;95772.06;;;2.16;68.04
18201;BME280;9226;47.858;9.594;2023-01-28T09:13:35;95772.72;;;2.01;68.29
18201;BME280;9226;47.858;9.594;2023-01-28T09:16:04;95774.09;;;1.46;68.10
18201;BME280;9226;47.858;9.594;2023-01-28T09:18:29;95783.88;;;1.19;68.96
18201;BME280;9226;47.858;9.594;2023-01-28T09:20:54;95788.06;;;1.23;69.39
18201;BME280;9226;47.858;9.594;2023-01-28T09:23:20;95773.16;;;1.03;69.20
18201;BME280;9226;47.858;9.594;2023-01-28T09:25:45;95781.44;;;1.14;69.94
18201;BME280;9226;47.858;9.594;2023-01-28T09:28:11;95787.19;;;1.00;69.44
18201;BME280;9226;47.858;9.594;2023-01-28T09:30:36;95785.91;;;1.11;70.21
18201;BME280;9226;47.858;9.594;2023-01-28T09:33:03;95795.81;;;1.02;69.70
18201;BME280;9226;47.858;9.594;2023-01-28T09:35:29;95791.88;;;1.14;69.72
18201;BME280;9226;47.858;9.594;2023-01-28T09:37:56;95786.50;;;0.95;69.91
18201;BME280;9226;47.858;9.594;2023-01-28T09:40:41;95788.91;;;1.01;70.54
18201;BME280;9226;47.858;9.594;2023-01-28T09:45:54;95790.59;;;1.24;70.61
18201;BME280;9226;47.858;9.594;2023-01-28T09:48:27;95793.88;;;1.07;70.56
18201;BME280;9226;47.858;9.594;2023-01-28T09:50:57;95799.75;;;0.90;71.39
18201;BME280;9226;47.858;9.594;2023-01-28T09:53:28;95804.63;;;0.76;72.01
18201;BME280;9226;47.858;9.594;2023-01-28T09:56:08;95801.72;;;0.60;72.08
18201;BME280;9226;47.858;9.594;2023-01-28T09:58:36;95795.41;;;0.66;72.98
18201;BME280;9226;47.858;9.594;2023-01-28T10:12:07;95800.94;;;0.33;74.56
18201;BME280;9226;47.858;9.594;2023-01-28T10:14:54;95795.50;;;0.39;74.60
18201;BME280;9226;47.858;9.594;2023-01-28T10:17:39;95793.75;;;0.40;74.67
18201;BME280;9226;47.858;9.594;2023-01-28T10:22:43;95778.72;;;0.46;75.06
18201;BME280;9226;47.858;9.594;2023-01-28T10:25:18;95796.72;;;0.54;74.85
18201;BME280;9226;47.858;9.594;2023-01-28T10:27:46;95787.47;;;0.45;75.20
18201;BME280;9226;47.858;9.594;2023-01-28T10:30:24;95787.63;;;0.41;75.17
18201;BME280;9226;47.858;9.594;2023-01-28T10:32:55;95787.25;;;0.51;75.49
18201;BME280;9226;47.858;9.594;2023-01-28T10:35:21;95788.09;;;0.52;74.73
18201;BME280;9226;47.858;9.594;2023-01-28T10:37:49;95784.38;;;0.34;74.97
18201;BME280;9226;47.858;9.594;2023-01-28T10:40:17;95785.19;;;0.60;75.05
18201;BME280;9226;47.858;9.594;2023-01-28T10:42:43;95783.94;;;0.46;75.03
18201;BME280;9226;47.858;9.594;2023-01-28T10:45:25;95777.41;;;0.58;74.25
18201;BME280;9226;47.858;9.594;2023-01-28T10:48:02;95781.22;;;0.49;74.03
18201;BME280;9226;47.858;9.594;2023-01-28T10:50:31;95792.16;;;0.35;74.59
18201;BME280;9226;47.858;9.594;2023-01-28T10:53:04;95792.22;;;0.34;74.91
18201;BME280;9226;47.858;9.594;2023-01-28T10:55:49;95783.75;;;0.27;75.04
18201;BME280;9226;47.858;9.594;2023-01-28T10:58:21;95789.38;;;0.40;74.69
18201;BME280;9226;47.858;9.594;2023-01-28T11:00:52;95795.28;;;0.45;74.92
18201;BME280;9226;47.858;9.594;2023-01-28T11:03:19;95791.84;;;0.45;74.32
18201;BME280;9226;47.858;9.594;2023-01-28T11:05:54;95791.84;;;0.45;74.09
18201;BME280;9226;47.858;9.594;2023-01-28T11:08:22;95797.28;;;0.39;74.25
18201;BME280;9226;47.858;9.594;2023-01-28T11:10:49;95796.31;;;0.41;74.51
18201;BME280;9226;47.858;9.594;2023-01-28T11:13:26;95795.44;;;0.41;73.84
18201;BME280;9226;47.858;9.594;2023-01-28T11:15:57;95790.38;;;0.36;74.34
18201;BME280;9226;47.858;9.594;2023-01-28T11:18:29;95791.41;;;0.32;74.07
18201;BME280;9226;47.858;9.594;2023-01-28T11:20:59;95792.22;;;0.34;74.76
18201;BME280;9226;47.858;9.594;2023-01-28T11:23:28;95786.31;;;0.29;74.79
18201;BME280;9226;47.858;9.594;2023-01-28T11:26:06;95786.38;;;0.27;74.85
18201;BME280;9226;47.858;9.594;2023-01-28T11:28:34;95791.16;;;0.14;75.17
18201;BME280;9226;47.858;9.594;2023-01-28T11:31:03;95791.06;;;0.17;76.05
18201;BME280;9226;47.858;9.594;2023-01-28T11:33:58;95789.88;;;0.26;75.52
18201;BME280;9226;47.858;9.594;2023-01-28T11:36:28;95786.63;;;0.20;75.61
18201;BME280;9226;47.858;9.594;2023-01-28T11:38:56;95785.78;;;0.19;75.61
18201;BME280;9226;47.858;9.594;2023-01-28T11:41:36;95789.91;;;0.25;75.37
18201;BME280;9226;47.858;9.594;2023-01-28T11:44:24;95789.50;;;0.37;75.70
18201;BME280;9226;47.858;9.594;2023-01-28T11:50:03;95778.88;;;0.42;75.51
18201;BME280;9226;47.858;9.594;2023-01-28T11:58:00;95787.34;;;0.48;75.22
18201;BME280;9226;47.858;9.594;2023-01-28T12:09:49;95775.91;;;0.76;73.73
18201;BME280;9226;47.858;9.594;2023-01-28T12:12:21;95775.69;;;0.82;73.30
18201;BME280;9226;47.858;9.594;2023-01-28T12:15:20;95766.47;;;0.72;73.67
18201;BME280;9226;47.858;9.594;2023-01-28T12:18:09;95775.69;;;0.82;73.29
18201;BME280;9226;47.858;9.594;2023-01-28T12:20:59;95773.28;;;1.00;72.91
18201;BME280;9226;47.858;9.594;2023-01-28T12:23:37;95786.78;;;1.11;73.14
18201;BME280;9226;47.858;9.594;2023-01-28T12:29:31;95766.06;;;1.29;71.73
18201;BME280;9226;47.858;9.594;2023-01-28T12:37:29;95766.34;;;1.21;71.18
18201;BME280;9226;47.858;9.594;2023-01-28T12:40:12;95770.75;;;1.20;71.18
18201;BME280;9226;47.858;9.594;2023-01-28T12:45:25;95769.81;;;0.76;71.17
18201;BME280;9226;47.858;9.594;2023-01-28T12:48:01;95774.03;;;0.56;71.94
18201;BME280;9226;47.858;9.594;2023-01-28T12:50:42;95768.84;;;0.54;72.10
18201;BME280;9226;47.858;9.594;2023-01-28T12:53:30;95770.91;;;0.70;71.73
18201;BME280;9226;47.858;9.594;2023-01-28T12:56:07;95774.06;;;0.78;72.12
18201;BME280;9226;47.858;9.594;2023-01-28T12:59:05;95775.94;;;0.98;72.03
18201;BME280;9226;47.858;9.594;2023-01-28T13:07:31;95766.56;;;0.93;71.27
18201;BME280;9226;47.858;9.594;2023-01-28T13:10:16;95771.13;;;0.87;71.65
18201;BME280;9226;47.858;9.594;2023-01-28T13:12:43;95771.69;;;0.72;71.70
18201;BME280;9226;47.858;9.594;2023-01-28T13:15:14;95774.06;;;0.78;72.33
18201;BME280;9226;47.858;9.594;2023-01-28T13:17:54;95774.22;;;0.97;72.37
18201;BME280;9226;47.858;9.594;2023-01-28T13:20:35;95775.19;;;0.95;72.07
18201;BME280;9226;47.858;9.594;2023-01-28T13:23:24;95788.59;;;0.85;72.34
18201;BME280;9226;47.858;9.594;2023-01-28T13:25:52;95781.69;;;0.84;72.74
18201;BME280;9226;47.858;9.594;2023-01-28T13:28:31;95781.91;;;1.02;72.66
18201;BME280;9226;47.858;9.594;2023-01-28T13:31:06;95784.56;;;1.00;72.33
18201;BME280;9226;47.858;9.594;2023-01-28T13:33:38;95782.25;;;0.93;72.15
18201;BME280;9226;47.858;9.594;2023-01-28T13:36:28;95789.75;;;1.02;72.05
18201;BME280;9226;47.858;9.594;2023-01-28T13:41:46;95781.44;;;1.14;71.88
18201;BME280;9226;47.858;9.594;2023-01-28T13:44:32;95783.13;;;1.15;71.35
18201;BME280;9226;47.858;9.594;2023-01-28T13:47:29;95787.53;;;0.91;71.42
18201;BME280;9226;47.858;9.594;2023-01-28T13:49:59;95792.69;;;0.93;71.69
18201;BME280;9226;47.858;9.594;2023-01-28T13:52:35;95804.25;;;1.09;71.43
18201;BME280;9226;47.858;9.594;2023-01-28T13:55:19;95804.19;;;1.11;71.31
18201;BME280;9226;47.858;9.594;2023-01-28T14:19:20;95821.88;;;1.04;71.30
18201;BME280;9226;47.858;9.594;2023-01-28T14:21:49;95824.03;;;0.93;70.91
18201;BME280;9226;47.858;9.594;2023-01-28T14:24:16;95820.88;;;1.08;70.88
18201;BME280;9226;47.858;9.594;2023-01-28T14:26:59;95825.06;;;0.88;70.40
18201;BME280;9226;47.858;9.594;2023-01-28T14:29:47;95825.28;;;1.06;70.40
18201;BME280;9226;47.858;9.594;2023-01-28T14:32:16;95832.34;;;1.04;70.22
18201;BME280;9226;47.858;9.594;2023-01-28T14:34:44;95840.72;;;0.88;70.74
18201;BME280;9226;47.858;9.594;2023-01-28T14:37:17;95834.38;;;0.72;69.99
18201;BME280;9226;47.858;9.594;2023-01-28T14:39:52;95835.44;;;0.66;70.13
18201;BME280;9226;47.858;9.594;2023-01-28T14:42:29;95836.06;;;0.49;70.93
18201;BME280;9226;47.858;9.594;2023-01-28T14:59:03;95853.22;;;0.80;70.84
18201;BME280;9226;47.858;9.594;2023-01-28T15:01:32;95860.09;;;0.83;70.69
18201;BME280;9226;47.858;9.594;2023-01-28T15:03:57;95864.72;;;0.76;70.48
18201;BME280;9226;47.858;9.594;2023-01-28T15:06:33;95860.03;;;0.61;70.57
18201;BME280;9226;47.858;9.594;2023-01-28T15:09:11;95855.13;;;0.51;71.26
18201;BME280;9226;47.858;9.594;2023-01-28T15:11:39;95853.59;;;0.69;71.34
18201;BME280;9226;47.858;9.594;2023-01-28T15:14:16;95860.09;;;0.83;70.84
18201;BME280;9226;47.858;9.594;2023-01-28T15:16:50;95865.94;;;0.89;70.67
18201;BME280;9226;47.858;9.594;2023-01-28T15:19:16;95865.22;;;0.86;70.72
18201;BME280;9226;47.858;9.594;2023-01-28T15:21:44;95860.28;;;0.78;70.88